createdAt,value
2019-04-29T00:00:13.790Z,15.37
2019-04-29T00:02:43.000Z,14.07
2019-04-29T00:05:12.454Z,14.47
2019-04-29T00:07:41.604Z,15.00
2019-04-29T00:10:13.006Z,15.30
2019-04-29T00:12:42.336Z,15.10
2019-04-29T00:15:30.934Z,15.13
2019-04-29T00:18:04.730Z,14.73
2019-04-29T00:20:41.780Z,14.70
2019-04-29T00:23:10.987Z,15.03
2019-04-29T00:25:40.347Z,15.03
2019-04-29T00:28:09.701Z,16.53
2019-04-29T00:30:38.913Z,14.30
2019-04-29T00:33:07.987Z,14.73
2019-04-29T00:35:37.720Z,15.30
2019-04-29T00:38:34.971Z,15.37
2019-04-29T00:41:22.035Z,15.67
2019-04-29T00:43:56.744Z,15.70
2019-04-29T00:46:26.044Z,16.07
2019-04-29T00:48:55.247Z,15.17
2019-04-29T00:51:24.473Z,15.50
2019-04-29T00:53:57.867Z,14.93
2019-04-29T00:56:27.180Z,14.47
2019-04-29T00:58:56.363Z,15.07
2019-04-29T01:01:26.316Z,15.23
2019-04-29T01:03:55.413Z,14.43
2019-04-29T01:06:24.583Z,14.13
2019-04-29T01:08:53.684Z,14.43
2019-04-29T01:11:22.971Z,14.80
2019-04-29T01:13:52.078Z,14.77
2019-04-29T01:16:21.194Z,15.03
2019-04-29T01:18:50.329Z,14.87
2019-04-29T01:21:19.459Z,15.17
2019-04-29T01:23:48.564Z,16.43
2019-04-29T01:26:39.501Z,15.53
2019-04-29T01:29:09.785Z,15.23
2019-04-29T01:31:39.149Z,15.67
2019-04-29T01:34:14.231Z,16.47
2019-04-29T01:36:44.879Z,15.47
2019-04-29T01:39:15.488Z,15.17
2019-04-29T01:42:03.637Z,15.23
2019-04-29T01:44:34.932Z,15.33
2019-04-29T01:47:04.215Z,15.03
2019-04-29T01:49:33.361Z,15.13
2019-04-29T01:52:02.756Z,15.30
2019-04-29T01:54:31.871Z,14.63
2019-04-29T01:57:01.024Z,15.67
2019-04-29T01:59:30.119Z,14.80
2019-04-29T02:01:59.315Z,13.87
2019-04-29T02:04:28.704Z,15.20
2019-04-29T02:06:57.945Z,14.23
2019-04-29T02:09:32.104Z,13.80
2019-04-29T02:12:01.428Z,14.60
2019-04-29T02:14:30.648Z,14.20
2019-04-29T02:16:59.864Z,14.90
2019-04-29T02:19:29.032Z,16.47
2019-04-29T02:22:26.263Z,14.77
2019-04-29T02:25:04.352Z,14.63
2019-04-29T02:27:33.462Z,14.23
2019-04-29T02:30:02.829Z,14.07
2019-04-29T02:32:31.963Z,13.83
2019-04-29T02:35:01.268Z,14.93
2019-04-29T02:37:34.474Z,14.47
2019-04-29T02:40:13.931Z,15.40
2019-04-29T02:42:51.096Z,14.27
2019-04-29T02:45:24.798Z,14.80
2019-04-29T02:47:54.055Z,14.13
2019-04-29T02:50:23.262Z,13.80
2019-04-29T02:52:52.454Z,15.17
2019-04-29T02:55:27.643Z,14.30
2019-04-29T02:58:12.706Z,14.47
2019-04-29T03:01:00.740Z,13.77
2019-04-29T03:03:45.112Z,14.23
2019-04-29T03:06:14.453Z,14.60
2019-04-29T03:08:43.645Z,13.07
2019-04-29T03:11:13.849Z,13.47
2019-04-29T03:13:43.034Z,14.50
2019-04-29T03:16:12.145Z,15.00
2019-04-29T03:18:46.413Z,14.73
2019-04-29T03:21:29.996Z,13.80
2019-04-29T03:23:59.295Z,15.20
2019-04-29T03:26:28.647Z,14.33
2019-04-29T03:28:58.052Z,14.97
2019-04-29T03:31:27.197Z,14.17
2019-04-29T03:33:56.413Z,14.60
2019-04-29T03:36:25.811Z,13.80
2019-04-29T03:38:55.232Z,14.33
2019-04-29T03:41:24.429Z,13.57
2019-04-29T03:43:53.648Z,14.90
2019-04-29T03:46:22.766Z,15.17
2019-04-29T03:48:52.013Z,15.13
2019-04-29T03:51:21.223Z,14.87
2019-04-29T03:53:50.433Z,15.47
2019-04-29T03:56:19.616Z,15.03
2019-04-29T03:58:48.988Z,15.57
2019-04-29T04:01:42.932Z,14.70
2019-04-29T04:04:36.979Z,15.83
2019-04-29T04:07:23.704Z,16.00
2019-04-29T04:09:52.939Z,16.23
2019-04-29T04:12:22.194Z,16.27
2019-04-29T04:14:51.220Z,14.97
2019-04-29T04:17:27.403Z,15.50
2019-04-29T04:19:56.643Z,16.87
2019-04-29T04:22:25.893Z,16.60
2019-04-29T04:24:55.211Z,17.87
2019-04-29T04:27:24.409Z,18.07
2019-04-29T04:29:53.730Z,16.73
2019-04-29T04:32:22.809Z,17.50
2019-04-29T04:34:51.961Z,17.43
2019-04-29T04:37:21.233Z,17.23
2019-04-29T04:39:50.404Z,17.97
2019-04-29T04:42:19.538Z,18.63
2019-04-29T04:44:49.088Z,18.17
2019-04-29T04:47:19.203Z,18.50
2019-04-29T04:49:48.396Z,18.27
2019-04-29T04:52:17.700Z,18.73
2019-04-29T04:54:48.927Z,18.33
2019-04-29T04:57:18.235Z,18.63
2019-04-29T04:59:47.340Z,18.30
2019-04-29T05:02:16.460Z,18.40
2019-04-29T05:04:45.660Z,19.20
2019-04-29T05:07:14.731Z,19.30
2019-04-29T05:09:43.927Z,18.40
2019-04-29T05:12:14.246Z,17.53
2019-04-29T05:14:43.571Z,18.27
2019-04-29T05:17:12.727Z,18.17
2019-04-29T05:19:41.945Z,17.53
2019-04-29T05:22:11.060Z,17.27
2019-04-29T05:24:40.315Z,18.60
2019-04-29T05:27:09.324Z,17.30
2019-04-29T05:29:38.646Z,17.27
2019-04-29T05:32:07.810Z,16.03
2019-04-29T05:34:41.842Z,16.57
2019-04-29T05:37:21.872Z,16.13
2019-04-29T05:39:51.135Z,16.00
2019-04-29T05:42:20.358Z,17.27
2019-04-29T05:44:58.924Z,16.30
2019-04-29T05:47:37.151Z,16.00
2019-04-29T05:50:38.810Z,16.03
2019-04-29T05:53:17.786Z,15.33
2019-04-29T05:55:46.840Z,15.93
2019-04-29T05:58:16.087Z,14.23
2019-04-29T06:00:58.692Z,15.77
2019-04-29T06:03:27.995Z,15.67
2019-04-29T06:05:57.383Z,15.47
2019-04-29T06:08:26.596Z,14.40
2019-04-29T06:10:55.786Z,14.03
2019-04-29T06:13:25.128Z,14.13
2019-04-29T06:15:54.433Z,13.97
2019-04-29T06:18:23.798Z,13.77
2019-04-29T06:20:53.284Z,13.50
2019-04-29T06:23:23.192Z,12.23
2019-04-29T06:25:53.390Z,14.80
2019-04-29T06:28:26.580Z,14.57
2019-04-29T06:30:53.505Z,14.20
2019-04-29T06:33:24.154Z,13.07
2019-04-29T06:35:56.939Z,13.53
2019-04-29T06:38:24.692Z,14.67
2019-04-29T06:40:53.904Z,14.37
2019-04-29T06:43:24.661Z,14.50
2019-04-29T06:45:54.175Z,13.77
2019-04-29T06:48:23.405Z,13.70
2019-04-29T06:50:52.647Z,16.03
2019-04-29T06:53:23.260Z,14.30
2019-04-29T06:55:52.486Z,14.70
2019-04-29T06:58:21.681Z,14.80
2019-04-29T07:00:51.250Z,14.70
2019-04-29T07:03:25.633Z,13.40
2019-04-29T07:05:52.842Z,15.90
2019-04-29T07:08:22.085Z,15.03
2019-04-29T07:10:51.213Z,14.07
2019-04-29T07:13:22.695Z,14.90
2019-04-29T07:15:51.252Z,15.30
2019-04-29T07:18:20.380Z,16.03
2019-04-29T07:20:49.838Z,14.75
2019-04-29T07:23:18.987Z,15.37
2019-04-29T07:25:48.414Z,15.30
2019-04-29T07:28:18.452Z,16.17
2019-04-29T07:31:00.971Z,14.65
2019-04-29T07:33:22.654Z,15.60
2019-04-29T07:35:49.689Z,15.70
2019-04-29T07:38:19.051Z,15.13
2019-04-29T07:40:48.222Z,16.03
2019-04-29T07:43:17.598Z,16.43
2019-04-29T07:46:03.790Z,16.17
2019-04-29T07:48:30.053Z,15.43
2019-04-29T07:51:03.645Z,15.10
2019-04-29T07:53:37.387Z,15.00
2019-04-29T07:56:01.712Z,13.40
2019-04-29T07:58:32.066Z,13.63
2019-04-29T08:01:01.205Z,13.62
2019-04-29T08:03:30.613Z,13.13
2019-04-29T08:05:59.963Z,15.25
2019-04-29T08:08:31.822Z,13.90
2019-04-29T08:11:01.413Z,13.78
2019-04-29T08:13:32.848Z,14.38
2019-04-29T08:16:02.036Z,12.47
2019-04-29T08:18:31.155Z,12.93
2019-04-29T08:21:32.227Z,13.15
2019-04-29T08:24:01.472Z,13.35
2019-04-29T08:26:33.699Z,13.03
2019-04-29T08:29:01.737Z,12.63
2019-04-29T08:31:31.091Z,11.85
2019-04-29T08:34:00.257Z,11.57
2019-04-29T08:36:29.486Z,10.78
2019-04-29T08:39:08.198Z,9.75
2019-04-29T08:41:29.984Z,9.68
2019-04-29T08:44:33.417Z,10.55
2019-04-29T08:47:13.551Z,10.90
2019-04-29T08:49:42.679Z,10.50
2019-04-29T08:52:11.881Z,10.20
2019-04-29T08:54:41.075Z,10.48
2019-04-29T08:57:10.233Z,11.40
2019-04-29T08:59:39.370Z,11.22
2019-04-29T09:02:10.327Z,11.33
2019-04-29T09:04:52.924Z,10.55
2019-04-29T09:07:12.764Z,10.45
2019-04-29T09:09:41.273Z,10.80
2019-04-29T09:12:10.371Z,11.10
2019-04-29T09:14:39.595Z,11.15
2019-04-29T09:17:19.784Z,10.53
2019-04-29T09:19:39.811Z,11.45
2019-04-29T09:22:10.811Z,10.30
2019-04-29T09:24:43.618Z,10.78
2019-04-29T09:27:17.128Z,10.03
2019-04-29T09:29:46.565Z,9.88
2019-04-29T09:32:15.968Z,10.53
2019-04-29T09:34:45.397Z,10.10
2019-04-29T09:37:14.597Z,10.20
2019-04-29T09:39:45.463Z,10.32
2019-04-29T09:42:37.845Z,10.43
2019-04-29T09:45:27.095Z,10.58
2019-04-29T09:47:56.259Z,10.38
2019-04-29T09:50:28.367Z,10.78
2019-04-29T09:52:56.519Z,10.68
2019-04-29T09:55:25.849Z,10.90
2019-04-29T09:57:55.021Z,10.08
2019-04-29T10:00:36.327Z,10.13
2019-04-29T10:03:49.359Z,10.70
2019-04-29T10:06:21.865Z,9.93
2019-04-29T10:08:50.957Z,9.35
2019-04-29T10:11:20.120Z,9.50
2019-04-29T10:13:49.407Z,10.75
2019-04-29T10:16:35.943Z,10.30
2019-04-29T10:19:27.711Z,10.48
2019-04-29T10:21:59.917Z,10.03
2019-04-29T10:24:29.217Z,11.03
2019-04-29T10:26:58.344Z,9.40
2019-04-29T10:29:29.141Z,9.60
2019-04-29T10:31:58.380Z,9.45
2019-04-29T10:34:31.564Z,8.95
2019-04-29T10:36:58.576Z,9.10
2019-04-29T10:39:51.335Z,8.85
2019-04-29T10:42:36.980Z,8.48
2019-04-29T10:45:42.088Z,9.10
2019-04-29T10:48:19.704Z,7.92
2019-04-29T10:50:52.187Z,8.78
2019-04-29T10:53:20.095Z,9.45
2019-04-29T10:55:49.251Z,7.95
2019-04-29T10:58:21.870Z,7.90
2019-04-29T11:02:13.719Z,9.53
2019-04-29T11:04:38.849Z,9.28
2019-04-29T11:07:31.117Z,9.33
2019-04-29T11:10:07.983Z,9.35
2019-04-29T11:12:36.372Z,10.43
2019-04-29T11:15:09.929Z,8.68
2019-04-29T11:17:39.569Z,9.05
2019-04-29T11:20:11.126Z,9.55
2019-04-29T11:22:44.682Z,8.50
2019-04-29T11:25:23.881Z,9.60
2019-04-29T11:27:56.093Z,9.00
2019-04-29T11:30:26.706Z,8.80
2019-04-29T11:33:24.426Z,8.85
2019-04-29T11:36:03.966Z,8.65
2019-04-29T11:38:33.428Z,8.50
2019-04-29T11:41:02.833Z,8.35
2019-04-29T11:43:32.512Z,8.13
2019-04-29T11:46:01.740Z,8.93
2019-04-29T11:48:30.892Z,8.35
2019-04-29T11:51:05.005Z,8.05
2019-04-29T11:53:45.653Z,7.05
2019-04-29T11:56:15.201Z,8.18
2019-04-29T11:58:50.840Z,7.80
2019-04-29T12:01:42.971Z,7.83
2019-04-29T12:04:20.939Z,7.03
2019-04-29T12:06:51.147Z,7.15
2019-04-29T12:09:21.020Z,7.90
2019-04-29T12:11:50.220Z,7.53
2019-04-29T12:14:44.683Z,6.97
2019-04-29T12:17:19.592Z,7.45
2019-04-29T12:19:49.985Z,6.90
2019-04-29T12:22:28.237Z,6.67
2019-04-29T12:24:50.043Z,6.92
2019-04-29T12:27:19.720Z,7.08
2019-04-29T12:29:54.442Z,6.50
2019-04-29T12:32:56.781Z,6.95
2019-04-29T12:35:30.436Z,6.40
2019-04-29T12:38:12.734Z,6.40
2019-04-29T12:41:03.785Z,6.17
2019-04-29T12:43:40.886Z,7.03
2019-04-29T12:46:38.018Z,6.53
2019-04-29T12:49:08.541Z,6.45
2019-04-29T12:51:38.231Z,6.42
2019-04-29T12:54:07.335Z,6.28
2019-04-29T12:56:38.166Z,6.22
2019-04-29T12:59:07.305Z,5.85
2019-04-29T13:02:13.795Z,5.50
2019-04-29T13:04:56.648Z,5.42
2019-04-29T13:07:37.815Z,4.85
2019-04-29T13:10:33.194Z,5.28
2019-04-29T13:13:02.419Z,5.20
2019-04-29T13:15:48.429Z,4.62
2019-04-29T13:18:40.479Z,4.67
2019-04-29T13:21:10.758Z,4.50
2019-04-29T13:23:53.607Z,4.97
2019-04-29T13:26:10.900Z,4.05
2019-04-29T13:28:58.519Z,4.47
2019-04-29T13:31:10.935Z,4.60
2019-04-29T13:33:40.112Z,3.87
2019-04-29T13:36:09.569Z,3.72
2019-04-29T13:38:38.695Z,3.65
2019-04-29T13:41:13.487Z,4.42
2019-04-29T13:43:39.014Z,3.50
2019-04-29T13:46:18.995Z,3.30
2019-04-29T13:49:13.410Z,3.10
2019-04-29T13:51:41.791Z,3.17
2019-04-29T13:54:11.092Z,3.70
2019-04-29T13:56:55.351Z,3.10
2019-04-29T13:59:13.659Z,3.20
2019-04-29T14:02:01.427Z,2.47
2019-04-29T14:04:36.195Z,2.62
2019-04-29T14:07:05.443Z,2.55
2019-04-29T14:09:35.011Z,2.75
2019-04-29T14:12:46.589Z,2.33
2019-04-29T14:14:36.804Z,2.30
2019-04-29T14:17:24.947Z,1.70
2019-04-29T14:19:42.617Z,1.75
2019-04-29T14:22:21.367Z,1.95
2019-04-29T14:24:39.998Z,1.30
2019-04-29T14:27:09.176Z,1.42
2019-04-29T14:29:38.346Z,1.00
2019-04-29T14:32:07.744Z,1.22
2019-04-29T14:34:45.545Z,0.90
2019-04-29T14:37:23.397Z,0.90
2019-04-29T14:39:45.633Z,0.80
2019-04-29T14:42:33.797Z,0.60
2019-04-29T14:45:20.891Z,0.85
2019-04-29T14:48:13.640Z,0.70
2019-04-29T14:50:43.578Z,0.70
2019-04-29T14:53:12.842Z,1.00
2019-04-29T14:55:42.015Z,0.90
2019-04-29T14:58:11.217Z,0.88
2019-04-29T15:01:08.963Z,1.17
2019-04-29T15:04:18.041Z,0.90
2019-04-29T15:06:41.089Z,1.17
2019-04-29T15:09:16.692Z,1.25
2019-04-29T15:12:08.532Z,1.30
2019-04-29T15:15:07.468Z,1.80
2019-04-29T15:17:58.843Z,1.87
2019-04-29T15:20:44.372Z,1.47
2019-04-29T15:23:27.532Z,1.40
2019-04-29T15:25:44.663Z,1.72
2019-04-29T15:28:13.760Z,1.90
2019-04-29T15:30:42.955Z,1.52
2019-04-29T15:33:12.127Z,1.25
2019-04-29T15:35:42.927Z,1.50
2019-04-29T15:38:12.209Z,1.60
2019-04-29T15:40:42.992Z,1.20
2019-04-29T15:43:12.610Z,1.60
2019-04-29T15:45:41.953Z,2.45
2019-04-29T15:48:11.316Z,2.50
2019-04-29T15:50:40.512Z,3.50
2019-04-29T15:53:09.711Z,3.40
2019-04-29T15:55:39.609Z,2.12
2019-04-29T15:58:10.186Z,2.30
2019-04-29T16:00:45.095Z,2.50
2019-04-29T16:03:17.757Z,2.87
2019-04-29T16:06:11.096Z,2.98
2019-04-29T16:08:45.539Z,3.60
2019-04-29T16:11:33.396Z,2.95
2019-04-29T16:14:09.302Z,4.00
2019-04-29T16:16:35.728Z,3.92
2019-04-29T16:19:08.133Z,4.00
2019-04-29T16:21:39.323Z,4.10
2019-04-29T16:24:25.121Z,4.17
2019-04-29T16:26:37.770Z,3.77
2019-04-29T16:29:12.430Z,3.75
2019-04-29T16:31:37.980Z,4.25
2019-04-29T16:34:07.315Z,4.22
2019-04-29T16:36:36.527Z,3.85
2019-04-29T16:39:07.226Z,3.65
2019-04-29T16:42:13.009Z,3.40
2019-04-29T16:44:42.205Z,4.45
2019-04-29T16:49:42.728Z,5.00
2019-04-29T16:52:11.933Z,4.22
2019-04-29T16:54:41.171Z,4.28
2019-04-29T16:57:10.467Z,4.08
2019-04-29T16:59:39.629Z,4.80
2019-04-29T17:02:08.904Z,3.92
2019-04-29T17:04:38.142Z,4.20
2019-04-29T17:07:13.268Z,4.03
2019-04-29T17:10:15.511Z,5.33
2019-04-29T17:12:49.024Z,5.17
2019-04-29T17:15:25.099Z,4.75
2019-04-29T17:17:49.328Z,4.75
2019-04-29T17:20:18.465Z,4.85
2019-04-29T17:22:47.762Z,4.85
2019-04-29T17:25:17.123Z,5.85
2019-04-29T17:28:24.342Z,5.62
2019-04-29T17:31:14.721Z,6.15
2019-04-29T17:33:57.255Z,5.03
2019-04-29T17:35:14.349Z,4.33
2019-04-29T17:36:26.923Z,5.55
2019-04-29T17:38:56.095Z,4.70
2019-04-29T17:41:25.410Z,5.30
2019-04-29T17:44:31.668Z,4.42
2019-04-29T17:47:18.324Z,3.80
2019-04-29T17:49:55.877Z,4.55
2019-04-29T17:52:27.568Z,3.77
2019-04-29T17:55:05.160Z,4.65
2019-04-29T17:57:42.383Z,4.92
2019-04-29T18:00:41.346Z,4.80
2019-04-29T18:03:34.829Z,5.42
2019-04-29T18:06:07.625Z,4.72
2019-04-29T18:08:44.864Z,5.25
2019-04-29T18:11:15.004Z,5.33
2019-04-29T18:13:45.858Z,5.17
2019-04-29T18:16:18.926Z,5.37
2019-04-29T18:19:06.385Z,4.50
2019-04-29T18:21:53.123Z,5.55
2019-04-29T18:24:37.860Z,5.20
2019-04-29T18:27:10.271Z,5.35
2019-04-29T18:29:41.783Z,5.20
2019-04-29T18:32:10.586Z,4.78
2019-04-29T18:34:39.680Z,4.95
2019-04-29T18:37:08.828Z,6.00
2019-04-29T18:39:38.257Z,5.50
2019-04-29T18:42:07.661Z,5.22
2019-04-29T18:44:40.457Z,5.33
2019-04-29T18:47:07.596Z,5.40
2019-04-29T18:49:36.805Z,4.92
2019-04-29T18:52:07.774Z,5.00
2019-04-29T18:54:37.004Z,4.53
2019-04-29T18:57:06.480Z,5.35
2019-04-29T18:59:36.784Z,6.00
2019-04-29T19:02:09.508Z,5.97
2019-04-29T19:04:56.441Z,5.50
2019-04-29T19:07:25.434Z,5.35
2019-04-29T19:09:55.517Z,5.70
2019-04-29T19:12:24.751Z,5.78
2019-04-29T19:14:59.727Z,5.62
2019-04-29T19:17:25.754Z,5.70
2019-04-29T19:19:55.406Z,6.47
2019-04-29T19:22:25.908Z,7.00
2019-04-29T19:24:55.791Z,6.27
2019-04-29T19:27:25.973Z,5.97
2019-04-29T19:29:56.970Z,6.53
2019-04-29T19:32:26.156Z,5.77
2019-04-29T19:34:58.236Z,4.43
2019-04-29T19:37:32.002Z,4.62
2019-04-29T19:39:59.609Z,5.37
2019-04-29T19:42:31.002Z,5.28
2019-04-29T19:44:59.106Z,5.22
2019-04-29T19:47:28.430Z,4.95
2019-04-29T19:49:57.460Z,6.05
2019-04-29T19:52:31.706Z,4.50
2019-04-29T19:55:01.632Z,5.17
2019-04-29T19:57:28.588Z,4.22
2019-04-29T19:59:58.229Z,4.17
2019-04-29T20:02:28.089Z,4.40
2019-04-29T20:05:08.167Z,4.45
2019-04-29T20:07:42.321Z,4.97
2019-04-29T20:10:10.589Z,4.10
2019-04-29T20:12:40.310Z,4.03
2019-04-29T20:15:10.914Z,3.72
2019-04-29T20:17:58.929Z,4.97
2019-04-29T20:20:38.755Z,4.85
2019-04-29T20:23:08.329Z,4.27
2019-04-29T20:25:38.601Z,4.05
2019-04-29T20:28:12.938Z,4.05
2019-04-29T20:30:39.362Z,4.78
2019-04-29T20:33:12.309Z,3.98
2019-04-29T20:35:40.437Z,4.45
2019-04-29T20:38:10.692Z,4.60
2019-04-29T20:40:43.286Z,4.35
2019-04-29T20:43:11.155Z,4.43
2019-04-29T20:45:40.662Z,5.08
2019-04-29T20:48:11.170Z,4.70
2019-04-29T20:50:41.339Z,4.92
2019-04-29T20:53:20.780Z,5.28
2019-04-29T20:55:50.053Z,4.97
2019-04-29T20:58:23.535Z,5.20
2019-04-29T21:00:50.366Z,5.05
2019-04-29T21:03:27.779Z,5.67
2019-04-29T21:05:54.423Z,5.60
2019-04-29T21:08:21.380Z,5.25
2019-04-29T21:10:52.496Z,5.27
2019-04-29T21:13:40.385Z,5.30
2019-04-29T21:16:17.091Z,6.30
2019-04-29T21:18:52.968Z,5.23
2019-04-29T21:21:17.145Z,5.67
2019-04-29T21:23:48.240Z,5.55
2019-04-29T21:26:17.252Z,4.97
2019-04-29T21:28:47.078Z,5.12
2019-04-29T21:31:19.909Z,5.03
2019-04-29T21:33:50.715Z,4.30
2019-04-29T21:36:30.701Z,5.03
2019-04-29T21:39:12.172Z,4.47
2019-04-29T21:42:03.206Z,3.67
2019-04-29T21:44:32.628Z,4.00
2019-04-29T21:47:06.638Z,3.98
2019-04-29T21:49:43.292Z,4.40
2019-04-29T21:52:05.617Z,5.22
2019-04-29T21:54:34.479Z,4.95
2019-04-29T21:57:05.683Z,5.72
2019-04-29T21:59:35.731Z,7.95
2019-04-29T22:02:06.679Z,6.78
2019-04-29T22:04:37.406Z,6.07
2019-04-29T22:07:09.047Z,6.37
2019-04-29T22:09:40.474Z,8.08
2019-04-29T22:12:14.187Z,7.62
2019-04-29T22:14:45.016Z,8.85
2019-04-29T22:17:15.699Z,8.68
2019-04-29T22:20:10.863Z,8.78
2019-04-29T22:22:40.680Z,9.15
2019-04-29T22:25:11.148Z,9.10
2019-04-29T22:27:41.237Z,9.18
2019-04-29T22:30:18.070Z,9.28
2019-04-29T22:32:47.048Z,9.13
2019-04-29T22:35:16.521Z,9.05
2019-04-29T22:37:46.056Z,9.25
2019-04-29T22:40:17.344Z,7.85
2019-04-29T22:43:10.120Z,6.00
2019-04-29T22:45:36.268Z,5.30
2019-04-29T22:48:14.899Z,5.15
2019-04-29T22:50:40.311Z,4.00
2019-04-29T22:53:09.443Z,3.95
2019-04-29T22:55:39.208Z,4.62
2019-04-29T22:58:09.980Z,5.20
2019-04-29T23:00:39.404Z,6.33
2019-04-29T23:03:08.744Z,5.80
2019-04-29T23:05:38.012Z,4.80
2019-04-29T23:08:07.388Z,5.20
2019-04-29T23:10:36.627Z,4.95
2019-04-29T23:13:06.364Z,5.53
2019-04-29T23:15:35.921Z,6.33
2019-04-29T23:18:06.045Z,6.53
2019-04-29T23:20:55.266Z,6.83
2019-04-29T23:23:33.433Z,5.17
2019-04-29T23:26:04.133Z,6.78
2019-04-29T23:28:32.616Z,5.97
2019-04-29T23:31:01.815Z,4.63
2019-04-29T23:33:30.996Z,4.83
2019-04-29T23:36:00.090Z,5.70
2019-04-29T23:38:29.436Z,5.80
2019-04-29T23:40:58.534Z,6.47
2019-04-29T23:43:28.574Z,7.40
2019-04-29T23:46:00.620Z,7.37
2019-04-29T23:48:38.632Z,7.20
2019-04-29T23:50:59.556Z,6.83
2019-04-29T23:53:28.724Z,7.70
2019-04-29T23:56:00.191Z,7.00
2019-04-29T23:58:55.399Z,8.00
